Time;durP1;ratioP1;P1;durP2;ratioP2;P2;SDS_P1;SDS_P2;PMS_P1;PMS_P2;Temp;Humidity;BMP_temperature;BMP_pressure;BME280_temperature;BME280_humidity;BME280_pressure;Samples;Min_cycle;Max_cycle;Signal;HPM_P1;HPM_P2
2021/10/29 00:02:03;;;;;;;18.90;17.00;;;8.50;73.90;;;;;;4997486;28;20225;-86
2021/10/29 00:04:29;;;;;;;19.47;17.30;;;8.50;73.90;;;;;;4995792;28;20248;-86
2021/10/29 00:06:54;;;;;;;20.17;18.17;;;8.40;72.60;;;;;;4996611;28;20421;-85
2021/10/29 00:09:20;;;;;;;18.80;16.93;;;8.40;74.80;;;;;;4996042;28;20178;-85
2021/10/29 00:11:46;;;;;;;19.37;17.37;;;8.40;73.90;;;;;;4995487;28;20184;-86
2021/10/29 00:14:11;;;;;;;20.80;18.60;;;8.40;73.60;;;;;;4996688;28;20566;-90
2021/10/29 00:16:37;;;;;;;19.60;17.60;;;8.40;74.60;;;;;;4996323;28;20181;-86
2021/10/29 00:19:03;;;;;;;18.80;16.87;;;8.30;74.20;;;;;;4996486;28;20174;-85
2021/10/29 00:21:29;;;;;;;19.60;17.73;;;8.30;73.70;;;;;;4996306;28;20178;-87
2021/10/29 00:23:56;;;;;;;19.00;17.23;;;8.30;74.20;;;;;;4995678;28;20788;-88
2021/10/29 00:26:23;;;;;;;18.80;16.80;;;8.40;74.90;;;;;;4996624;28;20182;-86
2021/10/29 00:28:49;;;;;;;20.40;18.20;;;8.40;73.50;;;;;;4996370;28;20504;-86
2021/10/29 00:31:14;;;;;;;22.70;18.43;;;8.30;73.50;;;;;;4996472;28;20633;-86
2021/10/29 00:33:40;;;;;;;20.03;18.03;;;8.30;73.80;;;;;;4996582;28;21003;-86
2021/10/29 00:36:06;;;;;;;20.20;18.10;;;8.30;74.00;;;;;;4996430;28;20257;-85
2021/10/29 00:38:31;;;;;;;19.23;17.23;;;8.20;74.70;;;;;;4996221;28;20267;-86
2021/10/29 00:40:57;;;;;;;20.60;17.37;;;8.20;74.70;;;;;;4996145;28;20195;-81
2021/10/29 00:43:23;;;;;;;19.80;16.57;;;8.20;74.80;;;;;;4996311;28;20182;-81
2021/10/29 00:45:48;;;;;;;19.43;17.53;;;8.20;74.40;;;;;;4995513;28;20181;-81
2021/10/29 00:48:15;;;;;;;18.77;16.80;;;8.20;74.20;;;;;;4995332;28;20206;-82
2021/10/29 00:50:41;;;;;;;17.87;16.07;;;8.20;74.30;;;;;;4995758;28;20630;-82
2021/10/29 00:53:08;;;;;;;17.60;15.90;;;8.10;75.40;;;;;;4995781;28;20465;-82
2021/10/29 00:55:34;;;;;;;19.03;17.00;;;8.10;74.80;;;;;;4995455;28;20433;-82
2021/10/29 00:58:00;;;;;;;22.40;20.17;;;8.10;75.10;;;;;;4995064;28;20433;-80
2021/10/29 01:00:26;;;;;;;17.50;15.80;;;8.10;74.70;;;;;;4994704;28;20916;-82
2021/10/29 01:02:51;;;;;;;19.20;17.60;;;8.10;74.50;;;;;;4994584;28;20610;-81
2021/10/29 01:05:18;;;;;;;19.17;17.40;;;8.10;74.50;;;;;;4994503;28;20284;-82
2021/10/29 01:07:44;;;;;;;17.60;16.00;;;8.00;74.30;;;;;;4995712;28;20217;-82
2021/10/29 01:10:10;;;;;;;17.87;16.17;;;8.00;73.90;;;;;;4994533;28;20429;-82
2021/10/29 01:12:37;;;;;;;18.80;16.97;;;8.00;74.20;;;;;;4994485;28;20461;-82
2021/10/29 01:15:04;;;;;;;17.60;15.80;;;8.00;73.90;;;;;;4994581;28;20412;-82
2021/10/29 01:17:30;;;;;;;19.53;17.53;;;8.00;73.60;;;;;;4996153;28;20405;-86
2021/10/29 01:19:57;;;;;;;19.20;17.20;;;8.00;73.50;;;;;;4995029;28;20421;-87
2021/10/29 01:22:24;;;;;;;19.00;17.10;;;8.00;73.90;;;;;;4995393;28;20193;-86
2021/10/29 01:24:51;;;;;;;19.73;17.73;;;7.90;73.60;;;;;;4994696;28;21012;-86
2021/10/29 01:27:17;;;;;;;19.63;17.53;;;8.00;73.80;;;;;;4995081;28;20784;-86
2021/10/29 01:29:44;;;;;;;17.13;15.60;;;7.90;74.60;;;;;;4995175;28;20421;-85
2021/10/29 01:32:11;;;;;;;19.27;17.47;;;7.90;74.00;;;;;;4995222;28;20488;-86
2021/10/29 01:34:38;;;;;;;18.33;16.43;;;8.00;73.40;;;;;;4995321;28;20427;-85
2021/10/29 01:37:10;;;;;;;18.93;17.13;;;7.90;72.80;;;;;;4993960;28;20425;-85
2021/10/29 01:39:37;;;;;;;19.30;17.20;;;7.90;73.20;;;;;;4994151;28;20417;-86
2021/10/29 01:42:03;;;;;;;17.90;16.10;;;7.80;73.60;;;;;;4994088;28;20424;-87
2021/10/29 01:44:29;;;;;;;18.63;16.70;;;7.90;73.40;;;;;;4994840;28;20410;-85
2021/10/29 01:46:55;;;;;;;19.17;17.33;;;7.70;73.50;;;;;;4995408;28;20421;-81
2021/10/29 01:49:21;;;;;;;19.20;15.97;;;7.70;74.90;;;;;;4996172;28;20178;-81
2021/10/29 01:51:46;;;;;;;19.80;17.37;;;7.80;73.70;;;;;;4993452;28;20235;-82
2021/10/29 01:54:12;;;;;;;17.17;15.40;;;7.70;73.50;;;;;;4994063;28;20432;-81
2021/10/29 01:56:39;;;;;;;18.50;16.60;;;7.70;74.10;;;;;;4994327;28;20577;-83
2021/10/29 01:59:05;;;;;;;16.87;15.13;;;7.70;74.00;;;;;;4995751;28;20475;-82
2021/10/29 02:01:31;;;;;;;18.33;16.53;;;7.80;74.40;;;;;;4993273;28;20413;-81
2021/10/29 02:03:57;;;;;;;18.90;16.47;;;7.80;72.70;;;;;;4993968;28;20425;-80
2021/10/29 02:06:23;;;;;;;20.33;17.13;;;7.80;73.40;;;;;;4994661;28;20487;-81
2021/10/29 02:08:49;;;;;;;16.20;14.60;;;7.80;73.60;;;;;;4993406;28;20424;-81
2021/10/29 02:11:15;;;;;;;17.67;15.80;;;7.90;72.60;;;;;;4993814;28;20177;-82
2021/10/29 02:13:41;;;;;;;18.67;16.80;;;7.90;72.70;;;;;;4993841;28;20206;-82
2021/10/29 02:16:07;;;;;;;19.80;17.70;;;7.80;72.70;;;;;;4994143;28;20474;-82
2021/10/29 02:18:33;;;;;;;17.20;15.70;;;7.90;72.90;;;;;;4993699;28;20421;-81
2021/10/29 02:20:59;;;;;;;18.03;16.13;;;7.80;73.00;;;;;;4994607;28;20579;-81
2021/10/29 02:23:25;;;;;;;18.10;16.50;;;7.80;72.70;;;;;;4994120;28;20425;-82
2021/10/29 02:25:51;;;;;;;19.63;17.63;;;7.90;73.00;;;;;;4993379;28;20192;-82
2021/10/29 02:28:18;;;;;;;18.83;17.00;;;7.80;72.90;;;;;;4992195;28;20910;-82
2021/10/29 02:30:45;;;;;;;18.50;16.80;;;7.80;73.10;;;;;;4993363;28;20182;-80
2021/10/29 02:33:12;;;;;;;19.27;17.40;;;7.80;72.50;;;;;;4993643;28;20464;-81
2021/10/29 02:35:38;;;;;;;18.27;16.47;;;7.70;73.40;;;;;;4993243;28;20443;-81
2021/10/29 02:38:03;;;;;;;19.17;17.30;;;7.70;72.70;;;;;;4993232;28;20405;-82
2021/10/29 02:40:30;;;;;;;19.57;17.67;;;7.70;73.00;;;;;;4993954;28;20937;-82
2021/10/29 02:42:55;;;;;;;17.80;16.10;;;7.60;72.90;;;;;;4993733;28;20588;-82
2021/10/29 02:45:21;;;;;;;18.73;16.83;;;7.60;73.30;;;;;;4994002;28;20440;-82
2021/10/29 02:47:47;;;;;;;18.93;17.07;;;7.60;73.90;;;;;;4993378;28;20867;-82
2021/10/29 02:50:18;;;;;;;17.87;16.17;;;7.60;73.50;;;;;;4994004;28;20922;-82
2021/10/29 02:52:44;;;;;;;17.43;15.83;;;7.70;72.80;;;;;;4994027;28;20467;-81
2021/10/29 02:55:11;;;;;;;18.87;16.90;;;7.60;73.30;;;;;;4993779;28;20471;-82
2021/10/29 02:57:37;;;;;;;19.30;17.40;;;7.60;73.30;;;;;;4992294;28;20964;-82
2021/10/29 03:00:09;;;;;;;19.40;17.30;;;7.60;73.40;;;;;;4993855;28;20409;-82
2021/10/29 03:02:35;;;;;;;19.07;17.17;;;7.60;72.50;;;;;;4992870;28;20417;-81
2021/10/29 03:05:03;;;;;;;19.90;17.90;;;7.60;72.70;;;;;;4992846;28;20503;-82
2021/10/29 03:07:29;;;;;;;20.33;18.43;;;7.60;72.20;;;;;;4993846;28;20420;-82
2021/10/29 03:09:55;;;;;;;17.60;16.00;;;7.60;71.50;;;;;;4992765;28;20420;-82
2021/10/29 03:12:21;;;;;;;19.63;17.73;;;7.60;73.30;;;;;;4993160;28;20463;-81
2021/10/29 03:14:47;;;;;;;19.13;17.33;;;7.60;72.70;;;;;;4992819;28;20492;-82
2021/10/29 03:17:13;;;;;;;19.10;17.20;;;7.50;72.40;;;;;;4992807;28;20173;-81
2021/10/29 03:19:39;;;;;;;19.37;17.57;;;7.50;73.60;;;;;;4992980;28;20449;-81
2021/10/29 03:22:05;;;;;;;18.97;17.10;;;7.50;73.40;;;;;;4993060;28;21104;-82
2021/10/29 03:24:31;;;;;;;19.63;17.73;;;7.50;73.30;;;;;;4992314;28;20178;-82
2021/10/29 03:26:56;;;;;;;19.87;17.87;;;7.50;73.60;;;;;;4992139;28;20951;-82
2021/10/29 03:29:22;;;;;;;19.70;17.80;;;7.40;73.60;;;;;;4992558;28;20276;-81
2021/10/29 03:31:48;;;;;;;20.83;18.83;;;7.50;73.40;;;;;;4992592;28;20669;-80
2021/10/29 03:34:13;;;;;;;18.80;17.10;;;7.50;72.30;;;;;;4992798;28;20313;-81
2021/10/29 03:36:40;;;;;;;18.83;17.00;;;7.40;72.90;;;;;;4992485;28;20182;-82
2021/10/29 03:39:25;;;;;;;19.80;16.67;;;7.20;73.60;;;;;;4992191;28;20240;-81
2021/10/29 03:42:21;;;;;;;18.63;16.73;;;7.30;74.20;;;;;;4992563;28;20452;-81
2021/10/29 03:44:54;;;;;;;19.73;17.73;;;7.20;73.60;;;;;;4993132;28;20786;-81
2021/10/29 03:47:20;;;;;;;20.60;18.70;;;7.10;74.10;;;;;;4991564;28;20783;-81
2021/10/29 03:49:51;;;;;;;18.10;16.33;;;7.30;73.80;;;;;;4992281;28;20425;-85
2021/10/29 03:54:46;;;;;;;19.23;17.30;;;7.30;73.50;;;;;;4993314;28;20432;-86
2021/10/29 03:57:33;;;;;;;18.37;16.57;;;7.30;72.00;;;;;;4992228;28;20178;-86
2021/10/29 03:59:58;;;;;;;17.13;15.50;;;7.10;72.20;;;;;;4992999;28;20936;-86
2021/10/29 04:02:24;;;;;;;18.37;16.37;;;7.10;73.20;;;;;;4992858;28;20428;-86
2021/10/29 04:04:51;;;;;;;20.87;17.00;;;7.10;73.00;;;;;;4992742;28;20449;-85
2021/10/29 04:07:17;;;;;;;18.80;16.90;;;7.10;73.20;;;;;;4992393;28;20476;-86
2021/10/29 04:09:45;;;;;;;20.17;18.37;;;7.20;72.90;;;;;;4992613;28;20465;-87
2021/10/29 04:12:13;;;;;;;19.80;17.90;;;7.20;73.10;;;;;;4992555;28;20475;-87
2021/10/29 04:14:39;;;;;;;18.97;17.07;;;7.10;73.00;;;;;;4992771;28;20512;-86
2021/10/29 04:17:04;;;;;;;19.57;17.67;;;7.10;72.80;;;;;;4992366;28;20449;-86
2021/10/29 04:19:30;;;;;;;18.80;16.90;;;7.10;73.00;;;;;;4991941;28;20512;-86
2021/10/29 04:21:59;;;;;;;18.43;16.57;;;7.10;73.00;;;;;;4992029;28;20217;-85
2021/10/29 04:24:26;;;;;;;19.73;17.87;;;7.10;72.90;;;;;;4992005;28;20428;-87
2021/10/29 04:26:52;;;;;;;19.03;17.03;;;7.10;72.30;;;;;;4994764;28;20421;-86
2021/10/29 04:29:24;;;;;;;18.30;16.40;;;7.20;72.10;;;;;;4994399;28;20459;-86
2021/10/29 04:31:50;;;;;;;20.07;17.40;;;7.10;72.50;;;;;;4995218;28;20429;-86
2021/10/29 04:34:24;;;;;;;19.93;17.60;;;6.90;72.60;;;;;;4996018;28;20534;-85
2021/10/29 04:36:56;;;;;;;18.10;16.30;;;6.90;72.80;;;;;;4995190;28;20423;-86
2021/10/29 04:39:21;;;;;;;20.77;18.87;;;6.90;73.30;;;;;;4998145;28;20459;-85
2021/10/29 04:41:50;;;;;;;20.93;18.93;;;7.00;73.30;;;;;;4995535;28;20903;-85
2021/10/29 04:44:17;;;;;;;20.17;18.17;;;7.00;71.90;;;;;;4995790;28;20642;-88
2021/10/29 04:46:43;;;;;;;20.10;18.20;;;7.00;72.10;;;;;;4995008;28;20432;-85
2021/10/29 04:49:09;;;;;;;17.57;15.97;;;6.90;72.60;;;;;;4994775;28;20421;-85
2021/10/29 04:51:35;;;;;;;19.93;17.97;;;6.80;71.90;;;;;;4994752;28;20425;-85
2021/10/29 04:54:01;;;;;;;19.43;17.53;;;6.90;72.40;;;;;;4995933;28;20316;-84
2021/10/29 04:56:27;;;;;;;18.70;16.80;;;6.90;72.20;;;;;;4994354;28;20178;-84
2021/10/29 04:58:53;;;;;;;19.20;17.30;;;6.90;72.20;;;;;;4994829;28;20838;-85
2021/10/29 05:01:19;;;;;;;21.07;18.97;;;7.00;72.50;;;;;;4994757;28;20425;-85
2021/10/29 05:03:45;;;;;;;20.23;18.17;;;7.00;72.10;;;;;;4995867;28;20182;-86
2021/10/29 05:06:11;;;;;;;19.60;17.50;;;7.00;71.70;;;;;;4995341;28;20244;-86
2021/10/29 05:08:37;;;;;;;21.53;17.77;;;6.90;71.90;;;;;;4994824;28;20916;-87
2021/10/29 05:11:07;;;;;;;18.73;16.70;;;6.80;72.50;;;;;;4994903;28;20973;-87
2021/10/29 05:13:33;;;;;;;18.63;16.83;;;6.80;72.80;;;;;;4994237;28;20506;-86
2021/10/29 05:15:59;;;;;;;17.93;16.10;;;6.70;71.90;;;;;;4994907;28;20416;-86
2021/10/29 05:18:25;;;;;;;19.73;17.73;;;6.70;71.90;;;;;;4994098;28;20930;-86
2021/10/29 05:20:51;;;;;;;19.90;17.77;;;6.60;71.90;;;;;;4994623;28;20468;-90
2021/10/29 05:23:17;;;;;;;17.70;15.93;;;6.60;72.20;;;;;;4994600;28;20235;-86
2021/10/29 05:25:42;;;;;;;17.73;16.03;;;6.60;72.30;;;;;;4993948;28;20446;-85
2021/10/29 05:28:09;;;;;;;20.20;18.17;;;6.60;72.40;;;;;;4993610;28;20542;-85
2021/10/29 05:30:35;;;;;;;20.30;17.37;;;6.60;71.70;;;;;;4994605;28;20492;-85
2021/10/29 05:33:01;;;;;;;20.87;18.97;;;6.70;71.50;;;;;;4994366;28;20519;-87
2021/10/29 05:35:27;;;;;;;20.60;18.43;;;6.60;71.40;;;;;;4995501;28;20775;-85
2021/10/29 05:37:53;;;;;;;19.13;17.27;;;6.60;70.50;;;;;;4994816;28;20413;-85
2021/10/29 05:40:18;;;;;;;17.63;15.93;;;6.60;70.60;;;;;;4994691;28;20185;-84
2021/10/29 05:42:44;;;;;;;19.07;17.20;;;6.60;71.10;;;;;;4994252;28;20645;-83
2021/10/29 05:45:11;;;;;;;19.30;17.53;;;6.60;71.10;;;;;;4993464;28;20581;-84
2021/10/29 05:47:39;;;;;;;18.53;16.80;;;6.50;71.10;;;;;;4993277;28;20790;-83
2021/10/29 05:50:10;;;;;;;17.83;16.23;;;6.50;71.10;;;;;;4993285;28;20827;-85
2021/10/29 05:52:43;;;;;;;20.60;17.83;;;6.50;71.00;;;;;;4994090;28;20499;-83
2021/10/29 05:57:40;;;;;;;18.80;16.80;;;6.60;70.90;;;;;;4995331;28;20906;-84
2021/10/29 06:00:07;;;;;;;19.10;17.10;;;6.60;70.10;;;;;;4992609;28;20921;-85
2021/10/29 06:02:33;;;;;;;18.70;16.83;;;6.60;70.40;;;;;;4993358;28;20891;-85
2021/10/29 06:04:58;;;;;;;17.53;15.93;;;6.60;70.40;;;;;;4994357;28;20552;-85
2021/10/29 06:07:24;;;;;;;18.80;15.50;;;6.60;70.10;;;;;;4993107;28;20304;-85
2021/10/29 06:09:50;;;;;;;20.80;17.77;;;6.70;70.40;;;;;;4992737;28;20178;-87
2021/10/29 06:12:15;;;;;;;19.83;17.93;;;6.60;70.40;;;;;;4992869;28;20217;-86
2021/10/29 06:14:41;;;;;;;19.40;17.37;;;6.60;70.80;;;;;;4993276;28;20173;-85
2021/10/29 06:17:12;;;;;;;17.40;15.60;;;6.60;70.50;;;;;;4993228;28;20181;-86
2021/10/29 06:19:38;;;;;;;19.47;17.37;;;6.60;70.00;;;;;;4992853;28;20421;-86
2021/10/29 06:22:27;;;;;;;19.90;18.00;;;6.60;71.60;;;;;;4994135;28;20418;-86
2021/10/29 06:24:51;;;;;;;19.90;17.90;;;6.70;70.70;;;;;;4993481;28;20214;-82
2021/10/29 06:29:46;;;;;;;17.77;15.97;;;6.70;69.70;;;;;;4995546;28;20425;-86
2021/10/29 06:32:13;;;;;;;20.23;18.43;;;6.70;70.10;;;;;;4993380;28;20910;-87
2021/10/29 06:34:39;;;;;;;18.10;16.20;;;6.70;70.10;;;;;;4993296;28;20475;-85
2021/10/29 06:37:07;;;;;;;18.37;16.50;;;6.70;69.20;;;;;;4992139;28;20414;-86
2021/10/29 06:39:34;;;;;;;17.13;15.70;;;6.60;69.20;;;;;;4992845;28;20174;-88
2021/10/29 06:42:06;;;;;;;16.80;15.07;;;6.50;69.80;;;;;;4993733;28;20410;-87
2021/10/29 07:40:48;;;;;;;15.63;14.10;;;7.70;64.30;;;;;;4994453;28;20499;-85
2021/10/29 07:43:24;;;;;;;15.30;13.60;;;7.70;64.00;;;;;;4992474;28;20457;-88
2021/10/29 07:45:50;;;;;;;16.40;13.93;;;7.80;63.90;;;;;;4993285;28;20916;-87
2021/10/29 07:48:15;;;;;;;16.00;14.30;;;7.60;63.80;;;;;;4991898;28;20431;-88
2021/10/29 07:50:41;;;;;;;14.33;13.10;;;7.70;64.60;;;;;;4992691;28;20225;-88
2021/10/29 07:53:07;;;;;;;15.43;13.70;;;7.80;64.10;;;;;;4993160;28;20673;-88
2021/10/29 07:55:32;;;;;;;14.70;13.20;;;7.80;64.10;;;;;;4993404;28;20178;-87
2021/10/29 07:58:03;;;;;;;17.60;15.80;;;7.80;63.30;;;;;;4993206;28;20189;-88
2021/10/29 08:00:31;;;;;;;14.07;12.70;;;7.80;63.90;;;;;;4994377;28;20190;-85
2021/10/29 08:02:59;;;;;;;17.97;15.80;;;7.90;63.00;;;;;;4996720;28;20427;-87
2021/10/29 08:05:26;;;;;;;14.53;13.07;;;8.00;63.60;;;;;;4997074;28;20437;-87
2021/10/29 08:07:52;;;;;;;16.83;15.13;;;8.10;63.80;;;;;;4996859;28;20472;-87
2021/10/29 08:10:18;;;;;;;15.43;13.93;;;8.10;63.40;;;;;;4997477;28;20425;-87
2021/10/29 08:12:44;;;;;;;15.90;14.43;;;8.20;63.10;;;;;;4997826;28;20556;-88
2021/10/29 08:15:10;;;;;;;15.40;13.90;;;8.30;61.90;;;;;;4997221;28;20459;-88
2021/10/29 08:17:36;;;;;;;16.43;14.80;;;8.20;62.20;;;;;;4997038;28;20421;-87
2021/10/29 08:20:05;;;;;;;16.57;14.87;;;8.30;62.40;;;;;;4997155;28;20417;-87
2021/10/29 08:22:32;;;;;;;18.20;14.93;;;8.40;62.50;;;;;;4996761;28;20797;-87
2021/10/29 08:24:58;;;;;;;19.70;17.60;;;8.50;62.00;;;;;;4997235;28;20910;-88
2021/10/29 08:27:24;;;;;;;15.40;13.90;;;8.60;61.50;;;;;;4999034;28;20429;-88
2021/10/29 08:29:51;;;;;;;17.50;15.47;;;8.70;61.50;;;;;;4998724;28;20421;-86
2021/10/29 08:32:17;;;;;;;16.47;14.90;;;8.70;60.90;;;;;;4996294;28;20520;-87
2021/10/29 08:34:43;;;;;;;17.30;15.63;;;8.80;61.20;;;;;;4996690;28;20500;-89
2021/10/29 08:37:10;;;;;;;16.63;15.13;;;8.80;60.90;;;;;;4996741;28;20432;-89
2021/10/29 08:39:38;;;;;;;15.70;14.13;;;8.70;60.50;;;;;;4996717;28;20421;-89
2021/10/29 08:42:06;;;;;;;16.77;15.20;;;8.90;61.40;;;;;;4997146;28;20483;-89
2021/10/29 08:44:33;;;;;;;16.47;14.87;;;9.00;60.20;;;;;;4998636;28;20774;-89
2021/10/29 08:47:01;;;;;;;16.50;13.73;;;9.10;61.20;;;;;;5003603;28;20476;-88
2021/10/29 08:49:32;;;;;;;15.47;13.87;;;9.20;60.30;;;;;;4996183;28;20417;-90
2021/10/29 08:52:00;;;;;;;15.93;14.47;;;9.20;60.50;;;;;;4996804;28;20505;-89
2021/10/29 08:54:27;;;;;;;17.47;15.87;;;9.20;59.80;;;;;;4995959;28;20417;-91
2021/10/29 08:56:54;;;;;;;18.47;16.57;;;9.20;60.30;;;;;;4996365;28;20785;-90
2021/10/29 08:59:29;;;;;;;18.07;16.30;;;9.30;60.20;;;;;;4995534;28;20425;-91
2021/10/29 09:33:53;;;;;;;15.57;14.00;;;9.70;60.00;;;;;;4996644;28;20564;-89
2021/10/29 09:36:30;;;;;;;15.60;14.20;;;9.80;59.30;;;;;;4995121;28;20452;-87
2021/10/29 09:38:58;;;;;;;17.07;14.20;;;9.90;59.10;;;;;;4994218;28;20407;-88
2021/10/29 09:41:24;;;;;;;14.70;13.30;;;9.90;58.90;;;;;;4995134;28;20425;-89
2021/10/29 09:44:04;;;;;;;14.87;13.47;;;10.00;58.30;;;;;;4994765;28;20512;-89
2021/10/29 09:46:58;;;;;;;16.00;14.40;;;10.00;57.70;;;;;;4995447;28;20879;-89
2021/10/29 09:49:52;;;;;;;15.07;13.70;;;10.10;58.40;;;;;;4996047;28;20424;-89
2021/10/29 09:52:35;;;;;;;17.07;15.27;;;10.20;56.80;;;;;;4996318;28;20419;-88
2021/10/29 09:57:30;;;;;;;16.10;14.67;;;10.50;56.40;;;;;;4997375;28;20414;-89
2021/10/29 09:59:58;;;;;;;16.13;14.70;;;10.60;55.80;;;;;;4995769;28;20504;-88
2021/10/29 10:02:29;;;;;;;13.97;12.67;;;10.70;55.70;;;;;;4995856;28;20422;-88
2021/10/29 10:04:58;;;;;;;16.87;15.27;;;10.80;56.50;;;;;;4995539;28;20926;-90
2021/10/29 10:07:33;;;;;;;16.57;15.07;;;10.90;54.90;;;;;;4995318;28;20886;-89
2021/10/29 10:10:00;;;;;;;16.57;14.90;;;10.90;55.20;;;;;;4994992;28;20803;-90
2021/10/29 10:12:29;;;;;;;16.40;14.70;;;11.00;55.60;;;;;;4995585;28;20488;-90
2021/10/29 10:14:57;;;;;;;15.00;13.70;;;11.00;54.40;;;;;;4995014;28;20409;-90
2021/10/29 10:17:23;;;;;;;16.67;15.27;;;11.10;55.40;;;;;;4995224;28;20480;-90
2021/10/29 10:19:50;;;;;;;16.20;12.33;;;11.10;54.40;;;;;;4995071;28;20464;-88
2021/10/29 10:22:18;;;;;;;17.30;15.70;;;11.10;55.00;;;;;;4994917;28;20510;-90
2021/10/29 10:24:51;;;;;;;14.77;13.57;;;11.00;54.60;;;;;;4995130;28;20496;-89
2021/10/29 10:45:50;;;;;;;17.40;15.50;;;11.50;55.40;;;;;;4995206;28;20416;-89
2021/10/29 10:48:27;;;;;;;17.20;15.40;;;11.50;54.40;;;;;;4994613;28;20818;-90
2021/10/29 10:51:15;;;;;;;16.40;14.83;;;11.60;54.60;;;;;;4994744;28;20838;-89
2021/10/29 10:53:54;;;;;;;18.07;15.93;;;11.70;54.80;;;;;;4993464;28;20547;-89
2021/10/29 10:59:26;;;;;;;16.00;14.47;;;11.90;53.40;;;;;;4994778;28;20401;-89
2021/10/29 11:07:13;;;;;;;18.87;14.47;;;12.00;54.30;;;;;;4993273;28;20496;-82
2021/10/29 11:10:11;;;;;;;14.33;13.00;;;12.00;53.30;;;;;;4992754;28;20769;-88
2021/10/29 11:12:40;;;;;;;15.50;14.03;;;12.10;54.10;;;;;;4993652;28;21119;-89
2021/10/29 11:15:18;;;;;;;15.43;13.97;;;12.10;54.00;;;;;;4993812;28;20421;-88
2021/10/29 11:17:50;;;;;;;16.20;12.97;;;12.20;53.40;;;;;;4993233;28;20417;-89
2021/10/29 11:20:34;;;;;;;16.57;14.97;;;12.30;52.60;;;;;;4993808;28;20417;-89
2021/10/29 11:23:11;;;;;;;15.70;14.20;;;12.30;52.70;;;;;;4993167;28;20420;-89
2021/10/29 11:26:08;;;;;;;18.13;16.20;;;12.40;53.00;;;;;;4993478;28;20423;-89
2021/10/29 11:28:47;;;;;;;17.17;15.47;;;12.40;52.40;;;;;;4978881;28;20424;-90
2021/10/29 11:31:15;;;;;;;17.03;15.23;;;12.50;52.70;;;;;;4994332;28;20413;-89
2021/10/29 11:33:52;;;;;;;18.20;14.33;;;12.50;52.20;;;;;;4994046;28;20468;-90
2021/10/29 11:36:27;;;;;;;16.03;14.53;;;12.70;51.30;;;;;;4997727;28;20408;-91
2021/10/29 11:38:55;;;;;;;15.60;13.97;;;12.70;51.50;;;;;;4996970;28;20964;-82
2021/10/29 11:41:33;;;;;;;12.40;11.23;;;12.80;51.90;;;;;;4997457;28;20405;-90
2021/10/29 11:44:04;;;;;;;15.80;14.13;;;12.70;51.10;;;;;;4997399;28;20434;-90
2021/10/29 11:46:31;;;;;;;14.50;13.10;;;12.80;50.50;;;;;;4998021;28;20421;-89
2021/10/29 11:49:09;;;;;;;14.23;12.30;;;12.90;50.80;;;;;;4997639;28;20421;-90
2021/10/29 11:51:36;;;;;;;14.37;13.13;;;13.00;50.80;;;;;;4997826;28;20424;-88
2021/10/29 12:09:41;;;;;;;15.40;14.00;;;13.30;49.80;;;;;;4998247;28;20463;-89
2021/10/29 12:12:15;;;;;;;23.90;12.60;;;13.40;49.80;;;;;;4997122;28;20455;-88
2021/10/29 12:14:45;;;;;;;14.70;12.77;;;13.40;50.20;;;;;;4998321;28;20873;-80
2021/10/29 12:17:35;;;;;;;13.97;12.47;;;13.60;50.50;;;;;;4994499;28;20421;-79
2021/10/29 12:20:06;;;;;;;13.37;11.73;;;13.70;48.90;;;;;;4996192;28;20793;-80
2021/10/29 12:25:21;;;;;;;14.80;13.40;;;14.00;48.00;;;;;;4995773;28;20938;-84
2021/10/29 12:30:46;;;;;;;16.33;12.10;;;14.00;47.60;;;;;;4998093;28;20540;-86
2021/10/29 13:01:41;;;;;;;10.17;9.27;;;14.50;46.90;;;;;;4955118;29;20506;-84
2021/10/29 13:04:15;;;;;;;13.50;8.37;;;14.50;45.60;;;;;;4954862;29;20486;-83
2021/10/29 13:06:46;;;;;;;10.63;9.27;;;14.60;45.70;;;;;;4981699;28;20471;-84
2021/10/29 13:09:25;;;;;;;9.13;8.23;;;14.60;45.70;;;;;;4994775;28;20428;-85
2021/10/29 13:11:55;;;;;;;9.93;8.60;;;14.50;46.10;;;;;;4996787;28;20727;-85
2021/10/29 13:14:34;;;;;;;10.57;9.47;;;14.50;44.10;;;;;;4994321;28;20504;-84
2021/10/29 13:17:03;;;;;;;9.47;7.70;;;14.60;44.50;;;;;;4994986;28;20419;-85
2021/10/29 13:24:46;;;;;;;9.10;8.20;;;14.70;43.60;;;;;;4995344;28;20787;-85
2021/10/29 13:56:25;;;;;;;9.40;8.50;;;14.90;43.80;;;;;;4994871;28;20409;-85
2021/10/29 14:01:48;;;;;;;8.87;8.13;;;14.80;44.50;;;;;;4994638;28;20463;-80
2021/10/29 14:28:50;;;;;;;9.17;8.23;;;14.80;44.50;;;;;;5070130;28;20928;-84
2021/10/29 14:31:34;;;;;;;9.10;8.20;;;14.70;44.70;;;;;;5069419;28;20413;-84
2021/10/29 14:34:22;;;;;;;8.53;7.73;;;14.90;43.50;;;;;;5068882;28;20826;-83
2021/10/29 14:39:24;;;;;;;8.47;7.77;;;14.80;43.90;;;;;;5069508;28;20968;-83
2021/10/29 14:49:51;;;;;;;7.83;6.77;;;14.50;44.90;;;;;;5069483;28;20429;-80
2021/10/29 15:25:16;;;;;;;9.73;8.40;;;14.20;45.30;;;;;;5069959;28;20436;-83
2021/10/29 15:30:42;;;;;;;8.97;8.07;;;14.10;46.40;;;;;;5062825;28;20517;-84
2021/10/29 15:44:09;;;;;;;11.53;8.93;;;13.80;47.40;;;;;;5023024;28;20890;-83
2021/10/29 15:46:53;;;;;;;11.77;8.27;;;13.80;47.80;;;;;;5023001;28;20827;-83
2021/10/29 15:49:23;;;;;;;8.83;8.03;;;13.70;48.20;;;;;;5022596;28;20455;-82
2021/10/29 15:51:54;;;;;;;11.17;9.90;;;13.70;47.80;;;;;;5020858;28;21186;-81
2021/10/29 15:54:21;;;;;;;10.90;9.23;;;13.70;48.70;;;;;;5021875;28;21648;-81
2021/10/29 15:56:53;;;;;;;9.60;8.67;;;13.60;49.00;;;;;;5021806;28;20982;-82
2021/10/29 15:59:30;;;;;;;9.87;9.07;;;13.60;48.70;;;;;;5021476;28;20507;-79
2021/10/29 16:02:16;;;;;;;11.53;7.60;;;13.60;49.30;;;;;;5021747;28;20481;-79
2021/10/29 16:18:22;;;;;;;9.00;8.10;;;13.10;51.20;;;;;;5022626;28;20840;-80
2021/10/29 16:20:47;;;;;;;8.63;7.90;;;13.10;51.30;;;;;;5022015;28;20438;-80
2021/10/29 16:23:13;;;;;;;8.93;8.00;;;13.00;51.60;;;;;;5021333;28;20253;-80
2021/10/29 16:25:52;;;;;;;9.50;8.07;;;13.00;51.60;;;;;;5021622;28;20248;-81
2021/10/29 16:28:20;;;;;;;9.30;8.40;;;13.00;52.00;;;;;;5021230;28;20228;-82
2021/10/29 16:30:46;;;;;;;11.47;10.47;;;12.80;52.20;;;;;;5022242;28;20455;-83
2021/10/29 16:35:59;;;;;;;10.97;10.00;;;12.70;52.70;;;;;;5025658;28;20531;-82
2021/10/29 16:38:25;;;;;;;9.87;8.10;;;12.70;52.50;;;;;;5023178;28;20875;-82
2021/10/29 16:40:52;;;;;;;10.63;8.63;;;12.70;52.60;;;;;;5025030;28;20513;-81
2021/10/29 16:43:18;;;;;;;13.90;8.80;;;12.60;53.10;;;;;;5021435;28;20232;-81
2021/10/29 16:45:46;;;;;;;9.90;8.57;;;12.40;53.60;;;;;;5022327;28;21421;-83
2021/10/29 16:48:14;;;;;;;11.07;10.17;;;12.40;53.50;;;;;;5021305;28;20459;-81
2021/10/29 16:50:40;;;;;;;9.47;8.57;;;12.40;53.30;;;;;;5021265;28;20468;-83
2021/10/29 16:53:07;;;;;;;10.03;9.03;;;12.30;53.40;;;;;;5021065;28;20455;-85
2021/10/29 16:55:32;;;;;;;10.47;8.67;;;12.30;53.80;;;;;;5022471;28;20459;-83
2021/10/29 16:57:58;;;;;;;9.60;8.60;;;12.30;54.00;;;;;;5021433;28;20509;-83
2021/10/29 17:00:24;;;;;;;10.80;9.70;;;12.20;54.20;;;;;;5020627;28;20230;-83
2021/10/29 17:02:50;;;;;;;9.63;8.73;;;12.10;54.40;;;;;;5020851;28;20220;-82
2021/10/29 17:05:16;;;;;;;10.30;9.00;;;12.10;54.80;;;;;;5020307;28;20804;-82
2021/10/29 17:07:41;;;;;;;9.67;8.87;;;12.10;54.30;;;;;;5021733;28;20225;-82
2021/10/29 17:10:10;;;;;;;11.30;10.20;;;12.00;54.80;;;;;;5019921;28;20227;-83
2021/10/29 17:12:40;;;;;;;11.27;9.17;;;12.00;55.10;;;;;;5019873;28;20282;-83
2021/10/29 17:15:09;;;;;;;10.63;9.53;;;12.00;54.90;;;;;;5022118;28;20997;-83
2021/10/29 17:17:34;;;;;;;14.30;10.83;;;11.90;54.90;;;;;;5020652;28;20451;-84
2021/10/29 17:20:02;;;;;;;10.70;9.60;;;11.90;55.00;;;;;;5021986;28;20549;-83
2021/10/29 17:22:28;;;;;;;10.00;9.00;;;11.80;55.30;;;;;;5018549;28;20470;-83
2021/10/29 17:24:54;;;;;;;11.53;10.40;;;11.80;55.50;;;;;;5020195;28;20452;-83
2021/10/29 17:27:19;;;;;;;12.20;11.10;;;11.70;55.90;;;;;;5022330;28;20227;-83
2021/10/29 17:29:45;;;;;;;10.83;9.20;;;11.70;56.10;;;;;;5019929;28;20458;-83
2021/10/29 17:32:12;;;;;;;9.83;8.93;;;11.70;55.90;;;;;;5021132;28;20267;-82
2021/10/29 17:34:42;;;;;;;15.37;11.10;;;11.70;56.10;;;;;;5019567;28;20693;-82
2021/10/29 17:37:08;;;;;;;10.57;9.57;;;11.60;56.00;;;;;;5020437;28;20546;-82
2021/10/29 17:39:34;;;;;;;13.60;9.90;;;11.60;56.40;;;;;;5037010;28;20460;-81
2021/10/29 17:42:02;;;;;;;9.70;8.70;;;11.60;56.70;;;;;;5020082;28;21001;-82
2021/10/29 17:44:28;;;;;;;11.20;10.20;;;11.60;56.50;;;;;;5019976;28;20979;-82
2021/10/29 17:46:55;;;;;;;15.97;11.13;;;11.50;56.70;;;;;;5019962;28;20546;-83
2021/10/29 17:49:22;;;;;;;10.47;9.57;;;11.60;56.80;;;;;;5021424;28;20455;-82
2021/10/29 17:51:48;;;;;;;13.47;11.63;;;11.50;56.40;;;;;;5019658;28;20462;-83
2021/10/29 17:54:14;;;;;;;12.43;11.13;;;11.50;56.90;;;;;;5016561;28;20443;-84